createdAt,value
2022-10-29T00:02:02.325Z,8.73
2022-10-29T00:04:31.952Z,8.76
2022-10-29T00:07:03.054Z,8.72
2022-10-29T00:09:32.235Z,8.77
2022-10-29T00:12:01.509Z,8.78
2022-10-29T00:14:35.663Z,8.79
2022-10-29T00:17:04.992Z,8.80
2022-10-29T00:19:34.026Z,8.79
2022-10-29T00:22:05.278Z,8.74
2022-10-29T00:24:34.639Z,8.74
2022-10-29T00:27:08.808Z,8.77
2022-10-29T00:29:37.944Z,8.77
2022-10-29T00:32:07.323Z,8.74
2022-10-29T00:34:36.520Z,8.65
2022-10-29T00:37:07.729Z,8.69
2022-10-29T00:39:36.862Z,8.73
2022-10-29T00:42:06.451Z,8.74
2022-10-29T00:44:38.547Z,8.72
2022-10-29T00:47:21.156Z,8.74
2022-10-29T00:50:00.026Z,8.68
2022-10-29T00:52:34.993Z,8.72
2022-10-29T00:55:09.089Z,8.63
2022-10-29T00:57:41.508Z,8.68
2022-10-29T01:00:14.275Z,8.65
2022-10-29T01:02:45.660Z,8.66
2022-10-29T01:05:23.319Z,8.63
2022-10-29T01:07:54.474Z,8.54
2022-10-29T01:10:33.367Z,8.63
2022-10-29T01:13:19.757Z,8.60
2022-10-29T01:16:00.180Z,8.53
2022-10-29T01:18:37.517Z,8.64
2022-10-29T01:21:52.022Z,8.59
2022-10-29T01:24:52.000Z,8.46
2022-10-29T01:27:51.463Z,8.36
2022-10-29T01:30:39.257Z,8.28
2022-10-29T01:33:23.088Z,8.25
2022-10-29T01:36:00.204Z,8.17
2022-10-29T01:38:38.183Z,8.07
2022-10-29T01:41:14.431Z,8.01
2022-10-29T01:46:29.482Z,7.95
2022-10-29T01:49:07.166Z,7.90
2022-10-29T01:51:38.454Z,7.90
2022-10-29T01:54:13.824Z,7.92
2022-10-29T01:56:44.653Z,7.87
2022-10-29T01:59:28.672Z,7.99
2022-10-29T02:02:14.388Z,8.01
2022-10-29T02:05:00.954Z,8.00
2022-10-29T02:07:40.404Z,7.95
2022-10-29T02:10:18.798Z,7.93
2022-10-29T02:12:51.038Z,7.89
2022-10-29T02:15:33.759Z,7.84
2022-10-29T02:18:04.975Z,7.85
2022-10-29T02:20:46.914Z,7.86
2022-10-29T02:23:17.629Z,7.86
2022-10-29T02:25:58.375Z,7.83
2022-10-29T02:28:32.566Z,7.79
2022-10-29T02:31:01.765Z,7.79
2022-10-29T02:33:30.945Z,7.80
2022-10-29T02:36:02.305Z,7.81
2022-10-29T02:38:31.456Z,7.81
2022-10-29T02:41:00.476Z,7.81
2022-10-29T02:43:29.644Z,7.81
2022-10-29T02:46:15.451Z,7.80
2022-10-29T02:48:50.036Z,7.77
2022-10-29T02:51:21.185Z,7.71
2022-10-29T02:53:50.559Z,7.65
2022-10-29T02:56:19.555Z,7.62
2022-10-29T02:58:48.822Z,7.60
2022-10-29T03:01:18.007Z,7.61
2022-10-29T03:03:47.223Z,7.65
2022-10-29T03:06:17.488Z,7.65
2022-10-29T03:08:54.044Z,7.67
2022-10-29T03:11:28.297Z,7.68
2022-10-29T03:13:57.757Z,7.71
2022-10-29T03:16:26.953Z,7.73
2022-10-29T03:18:55.954Z,7.75
2022-10-29T03:21:25.351Z,7.77
2022-10-29T03:23:56.576Z,7.84
2022-10-29T03:26:25.764Z,7.82
2022-10-29T03:28:54.802Z,7.90
2022-10-29T03:31:23.864Z,7.92
2022-10-29T03:33:58.224Z,7.87
2022-10-29T03:36:27.381Z,7.88
2022-10-29T03:38:58.405Z,7.88
2022-10-29T03:41:38.858Z,7.98
2022-10-29T03:44:13.061Z,8.08
2022-10-29T03:46:42.113Z,8.20
2022-10-29T03:49:11.178Z,8.27
2022-10-29T03:51:45.359Z,8.23
2022-10-29T03:54:16.424Z,8.42
2022-10-29T03:56:45.526Z,8.48
2022-10-29T04:01:49.760Z,8.51
2022-10-29T04:04:18.862Z,8.54
2022-10-29T04:06:48.044Z,8.54
2022-10-29T04:09:19.419Z,8.52
2022-10-29T04:11:48.895Z,8.56
2022-10-29T04:14:18.351Z,8.59
2022-10-29T04:19:22.648Z,8.55
2022-10-29T04:24:32.522Z,8.53
2022-10-29T04:27:08.072Z,8.51
2022-10-29T04:28:41.446Z,8.48
2022-10-29T04:30:37.459Z,8.48
2022-10-29T04:33:06.576Z,8.47
2022-10-29T04:35:35.767Z,8.51
2022-10-29T04:38:11.098Z,8.59
2022-10-29T04:40:42.272Z,8.62
2022-10-29T04:43:11.392Z,8.66
2022-10-29T04:45:40.576Z,8.67
2022-10-29T04:48:10.416Z,8.69
2022-10-29T04:50:40.338Z,8.73
2022-10-29T04:53:10.407Z,8.76
2022-10-29T04:55:41.871Z,8.83
2022-10-29T04:58:16.324Z,8.91
2022-10-29T05:00:46.120Z,8.98
2022-10-29T05:03:20.326Z,9.04
2022-10-29T05:05:49.492Z,9.07
2022-10-29T05:08:18.513Z,9.10
2022-10-29T05:10:54.685Z,9.13
2022-10-29T05:13:23.946Z,9.12
2022-10-29T05:15:53.859Z,9.15
2022-10-29T05:18:28.505Z,9.19
2022-10-29T05:20:58.339Z,9.24
2022-10-29T05:23:27.577Z,9.28
2022-10-29T05:25:59.224Z,9.31
2022-10-29T05:28:28.473Z,9.31
2022-10-29T05:30:57.546Z,9.32
2022-10-29T05:33:31.854Z,9.28
2022-10-29T05:36:01.873Z,9.33
2022-10-29T05:38:33.287Z,9.34
2022-10-29T05:41:05.041Z,9.36
2022-10-29T05:43:39.224Z,9.42
2022-10-29T05:46:08.416Z,9.47
2022-10-29T05:48:37.770Z,9.50
2022-10-29T05:51:07.240Z,9.56
2022-10-29T05:53:36.609Z,9.60
2022-10-29T05:56:08.997Z,9.63
2022-10-29T05:58:38.248Z,9.69
2022-10-29T06:01:08.905Z,9.71
2022-10-29T06:03:43.146Z,9.78
2022-10-29T06:06:12.274Z,9.82
2022-10-29T06:08:44.160Z,9.85
2022-10-29T06:11:15.344Z,9.86
2022-10-29T06:13:44.449Z,9.77
2022-10-29T06:16:13.515Z,9.74
2022-10-29T06:18:48.114Z,9.81
2022-10-29T06:21:17.221Z,9.82
2022-10-29T06:23:53.734Z,9.86
2022-10-29T06:26:25.049Z,9.94
2022-10-29T06:31:39.509Z,10.05
2022-10-29T06:34:08.647Z,10.07
2022-10-29T06:36:42.693Z,10.04
2022-10-29T06:39:11.838Z,9.98
2022-10-29T06:41:43.103Z,10.04
2022-10-29T06:44:15.313Z,10.13
2022-10-29T06:46:44.441Z,10.18
2022-10-29T06:49:13.468Z,10.18
2022-10-29T06:51:42.606Z,10.18
2022-10-29T06:54:11.808Z,10.20
2022-10-29T06:56:42.947Z,10.20
2022-10-29T06:59:12.209Z,10.16
2022-10-29T07:01:41.368Z,10.13
2022-10-29T07:04:10.511Z,10.12
2022-10-29T07:06:39.583Z,10.09
2022-10-29T07:09:08.877Z,10.03
2022-10-29T07:11:37.936Z,10.00
2022-10-29T07:14:14.515Z,9.95
2022-10-29T07:16:43.716Z,9.97
2022-10-29T07:19:12.691Z,10.00
2022-10-29T07:21:45.964Z,9.89
2022-10-29T07:24:17.184Z,9.96
2022-10-29T07:26:46.275Z,9.96
2022-10-29T07:29:17.521Z,9.96
2022-10-29T07:31:49.150Z,9.94
2022-10-29T07:34:18.631Z,9.92
2022-10-29T07:36:47.588Z,9.87
2022-10-29T07:39:16.933Z,9.85
2022-10-29T07:41:46.130Z,9.85
2022-10-29T07:44:22.687Z,9.91
2022-10-29T07:46:51.920Z,9.99
2022-10-29T07:49:21.475Z,9.88
2022-10-29T07:51:55.903Z,9.90
2022-10-29T07:54:25.096Z,10.01
2022-10-29T07:56:54.293Z,10.01
2022-10-29T07:59:25.400Z,10.05
2022-10-29T08:01:54.713Z,10.15
2022-10-29T08:04:24.048Z,10.15
2022-10-29T08:06:53.268Z,10.34
2022-10-29T08:09:27.449Z,10.48
2022-10-29T08:11:56.659Z,10.45
2022-10-29T08:14:27.723Z,10.55
2022-10-29T08:16:56.960Z,10.58
2022-10-29T08:19:26.005Z,10.49
2022-10-29T08:21:55.239Z,10.34
2022-10-29T08:24:24.863Z,10.33
2022-10-29T08:26:54.331Z,10.23
2022-10-29T08:29:24.437Z,10.09
2022-10-29T08:32:00.992Z,10.03
2022-10-29T08:34:30.322Z,10.02
2022-10-29T08:36:59.538Z,9.98
2022-10-29T08:39:28.772Z,9.80
2022-10-29T08:42:11.818Z,9.95
2022-10-29T08:45:06.840Z,9.95
2022-10-29T08:47:55.206Z,9.84
2022-10-29T08:50:30.565Z,9.95
2022-10-29T08:55:54.170Z,10.00
2022-10-29T08:58:32.758Z,10.07
2022-10-29T09:01:02.301Z,10.09
2022-10-29T09:03:34.128Z,10.20
2022-10-29T09:06:17.931Z,10.35
2022-10-29T09:08:59.090Z,10.44
2022-10-29T09:11:50.544Z,10.36
2022-10-29T09:14:35.124Z,10.42
2022-10-29T09:17:15.862Z,10.40
2022-10-29T09:20:07.179Z,10.49
2022-10-29T09:22:42.367Z,10.47
2022-10-29T09:25:24.172Z,10.51
2022-10-29T09:28:08.295Z,10.45
2022-10-29T09:30:44.064Z,10.66
2022-10-29T09:33:19.012Z,10.76
2022-10-29T09:35:56.069Z,10.76
2022-10-29T09:38:29.644Z,10.76
2022-10-29T09:41:00.855Z,10.62
2022-10-29T09:43:48.777Z,10.55
2022-10-29T09:46:29.262Z,10.48
2022-10-29T09:49:08.021Z,10.31
2022-10-29T09:51:48.054Z,10.51
2022-10-29T09:54:23.323Z,10.46
2022-10-29T09:56:54.843Z,10.35
2022-10-29T09:59:31.385Z,10.37
2022-10-29T10:02:01.255Z,10.29
2022-10-29T10:04:34.103Z,10.27
2022-10-29T10:07:08.605Z,10.20
2022-10-29T10:09:59.428Z,10.19
2022-10-29T10:12:30.767Z,10.10
2022-10-29T10:15:04.970Z,10.12
2022-10-29T10:17:56.638Z,10.10
2022-10-29T10:20:33.925Z,10.09
2022-10-29T10:23:24.182Z,10.13
2022-10-29T10:26:03.712Z,10.05
2022-10-29T10:28:36.084Z,10.11
2022-10-29T10:31:12.381Z,10.13
2022-10-29T10:33:52.600Z,10.09
2022-10-29T10:36:25.281Z,10.23
2022-10-29T10:41:46.424Z,10.20
2022-10-29T10:44:15.712Z,10.20
2022-10-29T10:46:51.411Z,10.14
2022-10-29T10:49:31.919Z,10.24
2022-10-29T10:52:04.770Z,10.14
2022-10-29T10:54:41.505Z,10.11
2022-10-29T10:57:23.921Z,10.15
2022-10-29T11:00:04.399Z,10.13
2022-10-29T11:02:46.935Z,10.12
2022-10-29T11:05:20.034Z,10.15
2022-10-29T11:07:57.091Z,10.17
2022-10-29T11:10:36.002Z,10.21
2022-10-29T11:13:08.964Z,10.09
2022-10-29T11:15:42.775Z,10.19
2022-10-29T11:18:20.044Z,10.02
2022-10-29T11:20:55.570Z,10.08
2022-10-29T11:23:35.769Z,10.07
2022-10-29T11:26:17.762Z,10.03
2022-10-29T11:28:56.117Z,10.06
2022-10-29T11:31:33.145Z,10.04
2022-10-29T11:34:13.637Z,10.06
2022-10-29T11:36:56.849Z,10.01
2022-10-29T11:39:33.344Z,10.01
2022-10-29T11:42:06.621Z,10.00
2022-10-29T11:44:46.390Z,10.03
2022-10-29T11:47:34.465Z,10.03
2022-10-29T11:50:27.125Z,10.05
2022-10-29T11:53:04.218Z,9.99
2022-10-29T11:55:48.643Z,9.95
2022-10-29T11:58:24.308Z,9.96
2022-10-29T12:01:01.899Z,9.94
2022-10-29T12:03:56.962Z,9.88
2022-10-29T12:06:33.702Z,9.76
2022-10-29T12:09:28.532Z,9.85
2022-10-29T12:12:04.834Z,9.88
2022-10-29T12:14:43.903Z,9.91
2022-10-29T12:17:19.732Z,9.83
2022-10-29T12:19:56.643Z,9.92
2022-10-29T12:22:36.447Z,9.94
2022-10-29T12:25:26.581Z,9.94
2022-10-29T12:28:06.807Z,10.03
2022-10-29T12:30:47.378Z,9.95
2022-10-29T12:33:27.666Z,9.97
2022-10-29T12:36:04.812Z,9.96
2022-10-29T12:38:42.866Z,9.92
2022-10-29T12:41:19.005Z,9.88
2022-10-29T12:43:50.000Z,9.90
2022-10-29T12:46:33.753Z,9.89
2022-10-29T12:58:50.554Z,8.93
2022-10-29T13:02:12.697Z,9.64
2022-10-29T13:05:02.915Z,9.76
2022-10-29T13:07:40.151Z,9.20
2022-10-29T13:10:39.831Z,9.58
2022-10-29T13:13:36.350Z,9.77
2022-10-29T13:16:09.501Z,9.76
2022-10-29T13:18:50.383Z,9.71
2022-10-29T13:21:49.098Z,9.74
2022-10-29T13:24:18.932Z,9.71
2022-10-29T13:27:29.720Z,9.77
2022-10-29T13:30:23.495Z,9.73
2022-10-29T13:32:58.802Z,9.69
2022-10-29T13:35:46.325Z,9.67
2022-10-29T13:38:17.794Z,9.67
2022-10-29T13:41:15.413Z,9.69
2022-10-29T13:43:54.994Z,9.65
2022-10-29T13:46:51.188Z,9.65
2022-10-29T13:49:30.646Z,9.61
2022-10-29T13:52:08.173Z,9.60
2022-10-29T13:54:41.989Z,9.55
2022-10-29T13:57:21.776Z,9.64
2022-10-29T13:59:56.152Z,9.59
2022-10-29T14:02:38.822Z,9.58
2022-10-29T14:05:16.207Z,9.57
2022-10-29T14:07:52.466Z,9.61
2022-10-29T14:10:26.077Z,9.61
2022-10-29T14:12:59.763Z,9.55
2022-10-29T14:18:26.793Z,9.56
2022-10-29T14:21:00.439Z,9.57
2022-10-29T14:23:30.919Z,9.55
2022-10-29T14:28:47.176Z,9.51
2022-10-29T14:31:18.980Z,9.47
2022-10-29T14:34:01.088Z,9.54
2022-10-29T14:36:34.975Z,9.48
2022-10-29T14:41:50.043Z,9.52
2022-10-29T14:44:21.357Z,9.57
2022-10-29T14:46:58.004Z,9.52
2022-10-29T14:49:30.426Z,9.55
2022-10-29T14:52:03.242Z,9.57
2022-10-29T14:54:36.963Z,9.52
2022-10-29T14:57:11.856Z,9.56
2022-10-29T14:59:45.098Z,9.50
2022-10-29T15:05:25.895Z,9.51
2022-10-29T15:08:12.125Z,9.56
2022-10-29T15:10:48.300Z,9.54
2022-10-29T15:13:25.300Z,9.54
2022-10-29T15:16:01.464Z,9.49
2022-10-29T15:21:23.383Z,9.54
2022-10-29T15:23:57.724Z,9.52
2022-10-29T15:26:26.910Z,9.55
2022-10-29T15:28:58.008Z,9.56
2022-10-29T15:31:32.911Z,9.59
2022-10-29T15:34:11.315Z,9.62
2022-10-29T15:36:53.137Z,9.60
2022-10-29T15:39:26.338Z,9.63
2022-10-29T15:41:58.324Z,9.65
2022-10-29T15:44:33.893Z,9.67
2022-10-29T15:47:04.908Z,9.66
2022-10-29T15:49:34.125Z,9.62
2022-10-29T15:52:06.032Z,9.51
2022-10-29T15:54:41.037Z,9.62
2022-10-29T15:57:12.594Z,9.61
2022-10-29T15:59:42.370Z,9.59
2022-10-29T16:02:13.968Z,9.64
2022-10-29T16:04:43.581Z,9.67
2022-10-29T16:07:17.298Z,9.69
2022-10-29T16:09:50.024Z,9.67
2022-10-29T16:12:19.461Z,9.65
2022-10-29T16:14:48.552Z,9.66
2022-10-29T16:17:20.525Z,9.69
2022-10-29T16:19:49.300Z,9.79
2022-10-29T16:22:33.592Z,9.76
2022-10-29T16:25:02.986Z,9.72
2022-10-29T16:27:32.636Z,9.74
2022-10-29T16:30:01.774Z,9.78
2022-10-29T16:32:33.408Z,9.62
2022-10-29T16:35:02.625Z,9.84
2022-10-29T16:37:34.390Z,9.86
2022-10-29T16:40:03.710Z,9.87
2022-10-29T16:42:35.953Z,9.87
2022-10-29T16:45:05.567Z,9.87
2022-10-29T16:47:34.753Z,9.75
2022-10-29T16:50:03.984Z,9.82
2022-10-29T16:52:35.102Z,9.82
2022-10-29T16:55:04.499Z,9.84
2022-10-29T16:57:33.609Z,9.78
2022-10-29T17:00:02.820Z,9.74
2022-10-29T17:02:34.158Z,9.80
2022-10-29T17:05:03.479Z,9.71
2022-10-29T17:07:34.561Z,9.71
2022-10-29T17:10:03.796Z,9.72
2022-10-29T17:12:33.142Z,9.71
2022-10-29T17:15:02.391Z,9.70
2022-10-29T17:17:33.530Z,9.72
2022-10-29T17:20:02.691Z,9.75
2022-10-29T17:22:35.043Z,9.74
2022-10-29T17:25:03.995Z,9.85
2022-10-29T17:27:33.136Z,9.77
2022-10-29T17:30:08.647Z,9.74
2022-10-29T17:32:38.262Z,9.72
2022-10-29T17:35:08.423Z,9.65
2022-10-29T17:37:39.896Z,9.67
2022-10-29T17:40:10.311Z,9.69
2022-10-29T17:42:39.390Z,9.61
2022-10-29T17:45:10.242Z,9.64
2022-10-29T17:50:29.620Z,9.50
2022-10-29T17:53:00.725Z,9.65
2022-10-29T17:55:35.260Z,9.65
2022-10-29T17:58:42.771Z,9.68
2022-10-29T18:01:12.162Z,9.62
2022-10-29T18:03:41.761Z,9.62
2022-10-29T18:06:12.710Z,9.58
2022-10-29T18:08:45.077Z,9.55
2022-10-29T18:11:16.706Z,9.55
2022-10-29T18:13:47.219Z,9.57
2022-10-29T18:16:18.017Z,9.58
2022-10-29T18:19:01.430Z,9.57
2022-10-29T18:21:41.549Z,9.55
2022-10-29T18:24:18.947Z,9.58
2022-10-29T18:26:52.363Z,9.60
2022-10-29T18:29:21.533Z,9.51
2022-10-29T18:31:50.599Z,9.54
2022-10-29T18:34:33.908Z,9.55
2022-10-29T18:37:02.706Z,9.64
2022-10-29T18:39:33.935Z,9.59
2022-10-29T18:42:03.549Z,9.60
2022-10-29T18:44:32.886Z,9.59
2022-10-29T18:47:02.134Z,9.57
2022-10-29T18:49:31.234Z,9.58
2022-10-29T18:52:05.599Z,9.64
2022-10-29T18:54:36.922Z,9.61
2022-10-29T18:57:19.272Z,9.64
2022-10-29T18:59:48.783Z,9.62
2022-10-29T19:02:18.193Z,9.63
2022-10-29T19:04:47.456Z,9.61
2022-10-29T19:07:19.309Z,9.66
2022-10-29T19:09:50.901Z,9.65
2022-10-29T19:12:20.138Z,9.67
2022-10-29T19:14:52.422Z,9.66
2022-10-29T19:17:21.794Z,9.66
2022-10-29T19:19:50.835Z,9.68
2022-10-29T19:22:25.166Z,9.67
2022-10-29T19:25:01.447Z,9.61
2022-10-29T19:27:33.082Z,9.64
2022-10-29T19:30:02.870Z,9.63
2022-10-29T19:32:33.217Z,9.61
2022-10-29T19:35:09.171Z,9.54
2022-10-29T19:37:38.920Z,9.55
2022-10-29T19:40:15.431Z,9.55
2022-10-29T19:42:44.564Z,9.52
2022-10-29T19:45:13.715Z,9.52
2022-10-29T19:47:43.546Z,9.53
2022-10-29T19:50:12.833Z,9.56
2022-10-29T19:52:42.364Z,9.45
2022-10-29T19:55:19.781Z,9.58
2022-10-29T19:57:49.207Z,9.59
2022-10-29T20:00:19.611Z,9.54
2022-10-29T20:02:48.744Z,9.56
2022-10-29T20:05:29.371Z,9.58
2022-10-29T20:07:58.985Z,9.54
2022-10-29T20:10:30.618Z,9.61
2022-10-29T20:13:07.949Z,9.64
2022-10-29T20:15:37.662Z,9.61
2022-10-29T20:18:07.431Z,9.60
2022-10-29T20:20:36.741Z,9.62
2022-10-29T20:23:05.843Z,9.63
2022-10-29T20:25:36.946Z,9.63
2022-10-29T20:28:06.465Z,9.64
2022-10-29T20:30:35.688Z,9.64
2022-10-29T20:33:04.802Z,9.65
2022-10-29T20:35:38.872Z,9.67
2022-10-29T20:38:08.481Z,9.71
2022-10-29T20:40:39.625Z,9.72
2022-10-29T20:43:11.008Z,9.77
2022-10-29T20:45:45.323Z,9.78
2022-10-29T20:48:14.650Z,9.74
2022-10-29T20:50:43.882Z,9.77
2022-10-29T20:53:12.914Z,9.83
2022-10-29T20:55:44.168Z,9.85
2022-10-29T20:58:18.424Z,9.83
2022-10-29T21:00:47.748Z,9.84
2022-10-29T21:03:18.421Z,9.83
2022-10-29T21:08:30.432Z,9.86
2022-10-29T21:11:07.798Z,9.85
2022-10-29T21:13:37.384Z,9.85
2022-10-29T21:16:08.078Z,9.88
2022-10-29T21:18:41.002Z,9.89
2022-10-29T21:21:10.973Z,9.90
2022-10-29T21:23:40.579Z,9.91
2022-10-29T21:26:14.029Z,9.94
2022-10-29T21:28:43.319Z,9.94
2022-10-29T21:31:17.695Z,9.94
2022-10-29T21:33:47.285Z,9.94
2022-10-29T21:36:16.475Z,9.95
2022-10-29T21:38:45.881Z,9.98
2022-10-29T21:41:17.755Z,9.97
2022-10-29T21:43:53.227Z,9.97
2022-10-29T21:46:22.342Z,9.92
2022-10-29T21:48:51.545Z,9.97
2022-10-29T21:51:25.702Z,9.94
2022-10-29T21:53:58.634Z,9.94
2022-10-29T21:56:29.812Z,9.95
2022-10-29T21:58:59.132Z,9.93
2022-10-29T22:01:32.096Z,9.92
2022-10-29T22:04:05.312Z,9.97
2022-10-29T22:06:34.395Z,10.01
2022-10-29T22:09:03.595Z,10.00
2022-10-29T22:11:35.021Z,10.01
2022-10-29T22:14:04.254Z,9.99
2022-10-29T22:16:33.411Z,10.01
2022-10-29T22:19:07.854Z,10.00
2022-10-29T22:21:37.021Z,9.99
2022-10-29T22:24:07.113Z,9.87
2022-10-29T22:26:38.304Z,9.97
2022-10-29T22:29:07.516Z,9.98
2022-10-29T22:33:14.759Z,9.87
2022-10-29T22:34:29.242Z,9.90
2022-10-29T22:36:58.535Z,9.88
2022-10-29T22:39:28.172Z,9.91
2022-10-29T22:41:59.327Z,9.90
2022-10-29T22:44:28.555Z,9.92
2022-10-29T22:46:57.581Z,9.90
2022-10-29T22:49:29.436Z,9.90
2022-10-29T22:52:01.467Z,9.88
2022-10-29T22:54:36.107Z,9.92
2022-10-29T22:59:52.050Z,9.91
2022-10-29T23:02:27.953Z,9.92
2022-10-29T23:04:57.458Z,9.71
2022-10-29T23:07:26.549Z,9.87
2022-10-29T23:09:55.721Z,9.85
2022-10-29T23:12:26.906Z,9.85
2022-10-29T23:15:04.223Z,9.85
2022-10-29T23:17:33.527Z,9.86
2022-10-29T23:20:02.655Z,9.85
2022-10-29T23:22:38.130Z,9.84
2022-10-29T23:25:08.187Z,9.75
2022-10-29T23:27:44.357Z,9.81
2022-10-29T23:30:14.617Z,9.84
2022-10-29T23:32:46.104Z,9.87
2022-10-29T23:35:15.385Z,9.91
2022-10-29T23:37:44.549Z,9.96
2022-10-29T23:40:14.559Z,9.97
2022-10-29T23:42:45.523Z,10.01
2022-10-29T23:45:21.594Z,10.06
2022-10-29T23:47:50.743Z,10.06
2022-10-29T23:50:19.815Z,10.15
2022-10-29T23:52:54.063Z,10.15
2022-10-29T23:55:23.169Z,10.22
